Time;durP1;ratioP1;P1;durP2;ratioP2;P2;SDS_P1;SDS_P2;PMS_P1;PMS_P2;Temp;Humidity;BMP_temperature;BMP_pressure;BME280_temperature;BME280_humidity;BME280_pressure;Samples;Min_cycle;Max_cycle;Signal;HPM_P1;HPM_P2
2023/12/31 00:02:12;;;;;;;10.63;4.53;;;7.70;81.30;;;;;;5020968;28;20041;-71
2023/12/31 00:04:38;;;;;;;7.80;4.53;;;7.70;81.30;;;;;;5023688;28;20084;-73
2023/12/31 00:07:04;;;;;;;7.87;4.33;;;7.80;81.20;;;;;;5021879;28;20096;-71
2023/12/31 00:09:30;;;;;;;12.63;5.67;;;7.80;81.30;;;;;;5023751;28;20524;-72
2023/12/31 00:11:55;;;;;;;8.33;4.47;;;7.80;81.20;;;;;;5023064;28;20164;-73
2023/12/31 00:14:21;;;;;;;10.40;5.23;;;7.80;81.30;;;;;;5021966;28;20052;-73
2023/12/31 00:16:47;;;;;;;8.33;4.00;;;7.80;81.30;;;;;;5022696;28;20057;-73
2023/12/31 00:19:12;;;;;;;6.93;4.40;;;7.80;81.30;;;;;;5022966;28;20564;-73
2023/12/31 00:21:42;;;;;;;8.17;4.73;;;7.80;81.30;;;;;;5022700;28;20068;-73
2023/12/31 00:24:09;;;;;;;9.87;4.53;;;7.80;81.30;;;;;;5013932;28;20156;-75
2023/12/31 00:26:34;;;;;;;11.93;6.20;;;7.80;81.40;;;;;;5022594;28;20584;-73
2023/12/31 00:29:00;;;;;;;10.03;5.03;;;7.80;81.30;;;;;;5021345;28;20128;-71
2023/12/31 00:31:25;;;;;;;7.73;5.07;;;7.80;81.40;;;;;;5023413;28;20088;-73
2023/12/31 00:33:56;;;;;;;11.47;4.73;;;7.90;81.50;;;;;;5017896;28;20053;-73
2023/12/31 00:36:25;;;;;;;7.40;4.67;;;7.90;81.40;;;;;;5021249;28;20089;-71
2023/12/31 00:38:52;;;;;;;8.53;3.77;;;7.90;81.50;;;;;;5022550;28;20351;-74
2023/12/31 00:41:18;;;;;;;9.17;4.63;;;7.90;81.40;;;;;;5021846;28;20053;-72
2023/12/31 00:43:44;;;;;;;11.73;5.43;;;8.00;81.30;;;;;;5022314;28;20064;-71
2023/12/31 00:46:13;;;;;;;5.13;3.50;;;8.00;81.40;;;;;;5022419;28;20180;-72
2023/12/31 00:48:39;;;;;;;7.50;3.93;;;8.00;81.40;;;;;;5023287;28;20054;-74
2023/12/31 00:51:04;;;;;;;8.13;4.07;;;8.00;81.40;;;;;;5022850;28;20061;-71
2023/12/31 00:53:30;;;;;;;7.07;3.73;;;7.90;81.40;;;;;;5018101;28;20390;-72
2023/12/31 00:55:56;;;;;;;6.30;3.63;;;7.80;81.40;;;;;;5016621;28;20064;-72
2023/12/31 00:58:21;;;;;;;8.13;5.33;;;7.80;81.50;;;;;;5012036;28;20634;-71
2023/12/31 01:00:47;;;;;;;7.93;4.37;;;7.80;81.50;;;;;;5021606;28;20140;-72
2023/12/31 01:03:12;;;;;;;7.00;4.37;;;7.70;81.60;;;;;;5024580;28;20114;-71
2023/12/31 01:05:38;;;;;;;7.50;3.70;;;7.70;81.60;;;;;;5021126;28;20053;-72
2023/12/31 01:08:04;;;;;;;12.03;6.63;;;7.60;81.70;;;;;;5022301;28;20067;-72
2023/12/31 01:10:30;;;;;;;8.17;3.90;;;7.60;81.70;;;;;;5022592;28;20177;-72
2023/12/31 01:12:55;;;;;;;6.40;3.30;;;7.60;81.80;;;;;;5022788;28;20466;-72
2023/12/31 01:15:24;;;;;;;10.53;4.93;;;7.60;82.00;;;;;;5021601;28;20049;-71
2023/12/31 01:17:49;;;;;;;9.40;3.23;;;7.60;82.00;;;;;;5016154;28;20104;-72
2023/12/31 01:20:15;;;;;;;10.23;6.50;;;7.60;82.10;;;;;;5016406;28;20061;-72
2023/12/31 01:22:41;;;;;;;10.53;6.57;;;7.70;82.00;;;;;;5022401;28;20108;-71
2023/12/31 01:25:07;;;;;;;6.03;3.50;;;7.80;81.90;;;;;;5021051;28;20139;-75
2023/12/31 01:27:33;;;;;;;5.97;2.87;;;7.80;81.90;;;;;;5020542;28;20054;-71
2023/12/31 01:29:58;;;;;;;6.70;3.10;;;7.80;81.70;;;;;;5021251;28;20053;-74
2023/12/31 01:32:24;;;;;;;4.73;2.57;;;7.80;81.60;;;;;;5019667;28;20049;-72
2023/12/31 01:34:50;;;;;;;5.13;3.17;;;7.80;81.50;;;;;;5017462;28;20053;-72
2023/12/31 01:37:15;;;;;;;4.93;2.63;;;7.80;81.40;;;;;;5021949;28;20042;-73
2023/12/31 01:39:41;;;;;;;4.20;2.07;;;7.80;81.40;;;;;;5022411;28;20179;-72
2023/12/31 01:42:07;;;;;;;5.23;2.47;;;7.80;81.30;;;;;;5021524;28;20064;-74
2023/12/31 01:44:32;;;;;;;4.33;2.20;;;7.80;81.10;;;;;;5022208;28;20467;-73
2023/12/31 01:46:58;;;;;;;5.83;2.17;;;7.80;81.20;;;;;;5021297;28;20072;-72
2023/12/31 01:49:24;;;;;;;6.30;2.50;;;7.80;81.10;;;;;;5023119;28;20192;-71
2023/12/31 01:51:50;;;;;;;6.67;2.63;;;7.70;81.10;;;;;;5022285;28;20060;-73
2023/12/31 01:54:18;;;;;;;4.17;2.40;;;7.60;81.10;;;;;;5013995;28;20054;-72
2023/12/31 01:56:45;;;;;;;5.00;2.20;;;7.60;81.10;;;;;;5008903;28;20523;-72
2023/12/31 01:59:11;;;;;;;5.23;2.40;;;7.50;81.10;;;;;;5022606;28;20071;-72
2023/12/31 02:01:37;;;;;;;5.00;2.67;;;7.50;81.20;;;;;;5022907;28;20061;-72
2023/12/31 02:04:06;;;;;;;4.60;2.03;;;7.50;81.20;;;;;;5021844;28;20128;-71
2023/12/31 02:06:31;;;;;;;4.97;2.77;;;7.40;81.30;;;;;;5021943;28;20112;-72
2023/12/31 02:08:57;;;;;;;5.20;2.20;;;7.40;81.50;;;;;;5022139;28;20054;-74
2023/12/31 02:11:24;;;;;;;6.83;2.43;;;7.20;81.50;;;;;;5022874;28;20509;-72
2023/12/31 02:13:49;;;;;;;4.83;2.40;;;7.20;81.50;;;;;;5023566;28;20053;-72
2023/12/31 02:16:16;;;;;;;3.80;2.50;;;7.20;81.50;;;;;;5025989;28;20060;-72
2023/12/31 02:18:42;;;;;;;4.47;2.90;;;7.20;81.60;;;;;;5024499;28;20510;-71
2023/12/31 02:21:09;;;;;;;4.90;2.50;;;7.20;81.70;;;;;;5025238;28;20516;-72
2023/12/31 02:23:36;;;;;;;4.50;2.50;;;7.10;81.70;;;;;;5026483;28;20069;-71
2023/12/31 02:26:12;;;;;;;3.10;2.23;;;7.10;81.70;;;;;;5023347;28;20065;-72
2023/12/31 02:28:37;;;;;;;4.03;2.33;;;7.00;81.80;;;;;;5024410;28;20140;-72
2023/12/31 02:31:04;;;;;;;4.23;2.23;;;7.10;81.70;;;;;;5021007;28;20184;-73
2023/12/31 02:33:30;;;;;;;3.57;1.83;;;7.00;81.70;;;;;;5023081;28;20077;-72
2023/12/31 02:35:56;;;;;;;4.10;2.40;;;7.00;81.60;;;;;;5024964;28;20053;-75
2023/12/31 02:38:22;;;;;;;4.07;2.10;;;7.00;81.70;;;;;;5025029;28;20056;-74
2023/12/31 02:40:48;;;;;;;3.93;2.20;;;7.00;81.70;;;;;;5023599;28;20110;-73
2023/12/31 02:43:13;;;;;;;5.40;2.50;;;7.00;81.70;;;;;;5017367;28;20409;-72
2023/12/31 02:45:39;;;;;;;4.00;2.20;;;7.00;81.80;;;;;;5024480;28;20041;-71
2023/12/31 02:48:06;;;;;;;4.50;2.03;;;7.00;81.70;;;;;;5025432;28;20045;-71
2023/12/31 02:50:32;;;;;;;4.13;1.87;;;7.00;81.70;;;;;;4998993;28;20049;-73
2023/12/31 02:52:57;;;;;;;3.73;2.30;;;7.00;81.70;;;;;;5024880;28;20103;-73
2023/12/31 02:55:23;;;;;;;3.90;1.77;;;7.00;81.60;;;;;;5020159;28;20068;-72
2023/12/31 02:57:49;;;;;;;3.47;1.80;;;7.00;81.60;;;;;;5023327;28;20464;-72
2023/12/31 03:00:15;;;;;;;2.77;1.73;;;7.00;81.50;;;;;;5025332;28;20168;-71
2023/12/31 03:02:41;;;;;;;4.63;2.03;;;7.10;81.50;;;;;;5025147;28;20136;-72
2023/12/31 03:05:10;;;;;;;2.93;1.90;;;7.10;81.40;;;;;;5023780;28;20480;-72
2023/12/31 03:07:36;;;;;;;2.70;1.70;;;7.10;81.30;;;;;;5023477;28;20544;-72
2023/12/31 03:10:02;;;;;;;4.50;1.60;;;7.10;81.20;;;;;;5024154;28;20057;-72
2023/12/31 03:12:28;;;;;;;3.07;1.80;;;7.20;81.00;;;;;;5025315;28;20061;-73
2023/12/31 03:14:57;;;;;;;3.80;1.97;;;7.20;81.00;;;;;;5024632;28;20364;-72
2023/12/31 03:17:23;;;;;;;2.87;1.93;;;7.20;80.80;;;;;;5023241;28;20386;-72
2023/12/31 03:19:49;;;;;;;3.40;1.60;;;7.20;80.60;;;;;;5020095;28;20119;-73
2023/12/31 03:22:15;;;;;;;2.87;1.87;;;7.20;80.50;;;;;;5016957;28;20037;-71
2023/12/31 03:24:44;;;;;;;3.47;1.90;;;7.20;80.30;;;;;;5023764;28;20053;-71
2023/12/31 03:27:11;;;;;;;2.17;1.57;;;7.30;80.10;;;;;;5021882;28;20053;-72
2023/12/31 03:29:37;;;;;;;2.97;1.70;;;7.30;79.90;;;;;;5026706;28;20056;-73
2023/12/31 03:32:03;;;;;;;4.33;1.90;;;7.30;79.80;;;;;;5023441;28;20136;-72
2023/12/31 03:34:29;;;;;;;4.43;1.70;;;7.40;79.70;;;;;;5006439;28;20912;-73
2023/12/31 03:36:55;;;;;;;3.13;1.90;;;7.30;79.70;;;;;;5024193;28;20053;-73
2023/12/31 03:39:20;;;;;;;5.13;1.83;;;7.30;79.60;;;;;;5024743;28;20125;-72
2023/12/31 03:41:47;;;;;;;3.13;2.13;;;7.30;79.70;;;;;;5022366;28;20049;-70
2023/12/31 03:44:13;;;;;;;3.70;2.20;;;7.30;79.70;;;;;;5020278;28;20140;-72
2023/12/31 03:46:39;;;;;;;4.17;2.23;;;7.30;79.70;;;;;;5023468;28;20148;-71
2023/12/31 03:49:04;;;;;;;4.40;1.93;;;7.30;79.70;;;;;;5023185;28;20049;-73
2023/12/31 03:51:30;;;;;;;5.77;2.13;;;7.30;79.70;;;;;;5023288;28;20062;-71
2023/12/31 03:53:56;;;;;;;2.93;2.00;;;7.20;79.70;;;;;;5024098;28;20060;-75
2023/12/31 03:56:22;;;;;;;4.57;2.20;;;7.30;79.80;;;;;;5023466;28;20045;-71
2023/12/31 03:58:48;;;;;;;3.27;1.90;;;7.30;79.80;;;;;;5023337;28;20249;-73
2023/12/31 04:01:13;;;;;;;4.60;2.10;;;7.30;79.80;;;;;;5023253;28;20100;-73
2023/12/31 04:03:39;;;;;;;3.97;1.80;;;7.30;79.80;;;;;;5023176;28;20443;-72
2023/12/31 04:06:07;;;;;;;3.50;1.90;;;7.30;80.00;;;;;;5023186;28;20045;-72
2023/12/31 04:08:33;;;;;;;4.27;2.33;;;7.40;80.00;;;;;;5024025;28;20065;-71
2023/12/31 04:10:58;;;;;;;5.13;2.20;;;7.40;79.90;;;;;;5022994;28;20103;-73
2023/12/31 04:13:25;;;;;;;3.77;2.10;;;7.40;80.10;;;;;;5022887;28;20045;-72
2023/12/31 04:15:50;;;;;;;2.70;1.93;;;7.40;80.00;;;;;;5016065;28;20380;-72
2023/12/31 04:18:16;;;;;;;2.23;1.60;;;7.40;80.10;;;;;;5023603;28;20289;-72
2023/12/31 04:20:43;;;;;;;2.47;1.70;;;7.40;80.10;;;;;;5023179;28;20059;-73
2023/12/31 04:23:08;;;;;;;5.47;2.10;;;7.40;80.10;;;;;;5023133;28;20056;-72
2023/12/31 04:25:34;;;;;;;5.13;1.70;;;7.30;80.10;;;;;;5023147;28;20053;-71
2023/12/31 04:28:00;;;;;;;2.97;1.90;;;7.30;80.10;;;;;;5018880;28;20508;-71
2023/12/31 04:30:26;;;;;;;4.80;1.80;;;7.20;80.20;;;;;;5020412;28;20054;-71
2023/12/31 04:32:52;;;;;;;3.13;1.70;;;7.20;80.20;;;;;;5023351;28;20045;-71
2023/12/31 04:35:18;;;;;;;3.07;1.93;;;7.20;80.40;;;;;;5022720;28;20041;-72
2023/12/31 04:37:44;;;;;;;3.90;2.00;;;7.10;80.50;;;;;;5023573;28;20060;-71
2023/12/31 04:40:10;;;;;;;3.23;2.07;;;7.00;80.60;;;;;;5022693;28;20544;-72
2023/12/31 04:42:35;;;;;;;4.40;2.20;;;7.00;80.70;;;;;;5023411;28;20071;-72
2023/12/31 04:45:07;;;;;;;3.63;2.20;;;7.00;80.80;;;;;;5036502;28;20080;-71
2023/12/31 04:47:33;;;;;;;3.80;2.10;;;7.00;80.80;;;;;;5023862;28;20320;-71
2023/12/31 04:49:59;;;;;;;2.93;2.13;;;7.00;80.80;;;;;;5021563;28;20069;-72
2023/12/31 04:52:24;;;;;;;4.77;2.27;;;7.00;80.90;;;;;;5022354;28;20049;-71
2023/12/31 04:54:51;;;;;;;4.70;1.93;;;7.00;81.00;;;;;;5022597;28;20055;-71
2023/12/31 04:57:16;;;;;;;5.70;2.50;;;7.00;80.90;;;;;;5021786;28;20073;-73
2023/12/31 04:59:42;;;;;;;3.60;2.20;;;7.00;80.90;;;;;;5020495;28;20072;-71
2023/12/31 05:02:08;;;;;;;3.30;2.17;;;7.00;81.00;;;;;;5021812;28;20053;-72
2023/12/31 05:04:33;;;;;;;3.37;2.47;;;7.00;81.00;;;;;;5019244;28;20057;-75
2023/12/31 05:06:59;;;;;;;4.83;2.50;;;7.00;81.00;;;;;;5020875;28;20064;-72
2023/12/31 05:09:25;;;;;;;3.50;2.20;;;7.00;81.00;;;;;;5020727;28;20433;-71
2023/12/31 05:11:51;;;;;;;5.37;2.47;;;7.00;81.00;;;;;;5020983;28;20132;-72
2023/12/31 05:14:16;;;;;;;3.53;2.23;;;6.90;81.10;;;;;;5022255;28;20483;-71
2023/12/31 05:16:42;;;;;;;4.20;2.53;;;6.90;81.00;;;;;;5022675;28;20416;-73
2023/12/31 05:19:08;;;;;;;3.17;2.03;;;6.90;81.10;;;;;;5023029;28;20076;-72
2023/12/31 05:21:34;;;;;;;4.67;2.23;;;6.90;81.10;;;;;;5020884;28;20580;-74
2023/12/31 05:24:00;;;;;;;3.57;2.40;;;6.90;81.10;;;;;;5022646;28;20584;-71
2023/12/31 05:26:26;;;;;;;5.70;2.60;;;6.90;81.10;;;;;;5021955;28;20077;-72
2023/12/31 05:28:52;;;;;;;4.27;2.40;;;6.90;81.10;;;;;;5021915;28;20135;-72
2023/12/31 05:31:18;;;;;;;7.60;2.00;;;6.90;81.10;;;;;;5022672;28;20056;-72
2023/12/31 05:33:44;;;;;;;3.20;2.30;;;6.90;81.10;;;;;;5022921;28;20049;-72
2023/12/31 05:36:11;;;;;;;4.20;2.43;;;6.90;81.10;;;;;;5021650;28;20046;-73
2023/12/31 05:38:36;;;;;;;3.30;2.30;;;6.90;81.10;;;;;;5020975;28;20057;-72
2023/12/31 05:41:02;;;;;;;3.43;1.90;;;6.90;81.10;;;;;;5020881;28;20161;-72
2023/12/31 05:43:28;;;;;;;4.73;2.40;;;6.90;81.00;;;;;;5021361;28;20057;-72
2023/12/31 05:45:53;;;;;;;5.33;2.20;;;6.90;80.80;;;;;;5021842;28;20053;-72
2023/12/31 05:48:19;;;;;;;3.60;2.43;;;6.90;81.00;;;;;;5024100;28;20061;-71
2023/12/31 05:50:46;;;;;;;4.07;2.20;;;6.90;80.80;;;;;;5025910;28;20507;-73
2023/12/31 05:53:12;;;;;;;2.77;2.10;;;6.90;80.80;;;;;;5025588;28;20132;-72
2023/12/31 05:55:38;;;;;;;4.30;2.10;;;6.90;80.70;;;;;;5025954;28;20156;-74
2023/12/31 05:58:03;;;;;;;2.60;2.20;;;6.90;80.70;;;;;;5025575;28;20045;-72
2023/12/31 06:00:29;;;;;;;3.80;2.00;;;6.90;80.50;;;;;;5024118;28;20132;-72
2023/12/31 06:02:55;;;;;;;5.57;2.83;;;6.90;80.60;;;;;;5025527;28;20390;-72
2023/12/31 06:05:21;;;;;;;3.60;2.50;;;6.90;80.70;;;;;;5020251;28;20411;-72
2023/12/31 06:07:47;;;;;;;4.67;2.37;;;6.90;80.70;;;;;;5025335;28;20515;-71
2023/12/31 06:10:13;;;;;;;3.43;2.50;;;6.90;80.80;;;;;;5016826;28;20046;-71
2023/12/31 06:12:39;;;;;;;3.17;2.40;;;6.90;80.70;;;;;;5025890;28;20049;-72
2023/12/31 06:15:06;;;;;;;4.10;2.67;;;6.90;80.80;;;;;;5024602;28;20057;-72
2023/12/31 06:17:38;;;;;;;4.43;2.43;;;6.90;80.80;;;;;;5019215;28;20382;-71
2023/12/31 06:20:04;;;;;;;4.20;2.27;;;6.90;80.70;;;;;;5015477;28;20131;-72
2023/12/31 06:22:30;;;;;;;4.63;2.90;;;6.90;80.70;;;;;;5025076;28;20416;-72
2023/12/31 06:24:56;;;;;;;5.87;2.60;;;6.90;80.70;;;;;;5026360;28;20048;-75
2023/12/31 06:27:23;;;;;;;4.23;2.47;;;6.90;80.70;;;;;;5025629;28;20053;-71
2023/12/31 06:29:50;;;;;;;3.57;2.50;;;6.90;80.70;;;;;;5017416;28;20050;-72
2023/12/31 06:32:20;;;;;;;4.63;2.90;;;6.90;80.50;;;;;;5013609;28;20455;-72
2023/12/31 06:34:46;;;;;;;3.93;2.50;;;6.90;80.40;;;;;;5025879;28;20041;-71
2023/12/31 06:37:12;;;;;;;7.17;2.83;;;7.00;80.30;;;;;;5025209;28;20350;-71
2023/12/31 06:39:41;;;;;;;5.13;2.70;;;7.00;80.30;;;;;;5024496;28;20483;-72
2023/12/31 06:42:07;;;;;;;4.07;2.70;;;7.00;80.10;;;;;;5018263;28;20368;-71
2023/12/31 06:44:32;;;;;;;3.70;2.70;;;7.00;80.10;;;;;;5023468;28;20037;-73
2023/12/31 06:46:58;;;;;;;6.77;2.83;;;7.10;79.50;;;;;;5024079;28;20124;-74
2023/12/31 06:49:23;;;;;;;6.60;2.97;;;7.10;79.40;;;;;;5025298;28;20064;-72
2023/12/31 06:51:49;;;;;;;3.57;2.60;;;7.20;79.40;;;;;;5012265;28;20065;-72
2023/12/31 06:54:15;;;;;;;6.00;2.80;;;7.20;79.40;;;;;;5025226;28;20103;-71
2023/12/31 06:56:40;;;;;;;5.60;2.70;;;7.20;79.30;;;;;;5025590;28;20049;-72
2023/12/31 06:59:06;;;;;;;4.27;3.10;;;7.20;79.40;;;;;;5022555;28;20053;-72
2023/12/31 07:01:32;;;;;;;3.87;2.80;;;7.20;79.30;;;;;;5026110;28;20149;-73
2023/12/31 07:03:58;;;;;;;4.37;2.93;;;7.20;79.20;;;;;;5027480;28;20390;-72
2023/12/31 07:06:24;;;;;;;6.80;2.97;;;7.20;79.20;;;;;;5019885;28;20067;-72
2023/12/31 07:08:50;;;;;;;5.07;2.90;;;7.20;79.10;;;;;;5024522;28;20045;-72
2023/12/31 07:11:16;;;;;;;4.97;3.23;;;7.20;79.00;;;;;;5024791;28;20632;-76
2023/12/31 07:13:43;;;;;;;3.20;2.50;;;7.20;78.80;;;;;;5024848;28;20056;-73
2023/12/31 07:16:09;;;;;;;4.47;2.73;;;7.30;78.60;;;;;;5001053;28;20064;-73
2023/12/31 07:18:36;;;;;;;5.20;2.43;;;7.30;78.60;;;;;;5025094;28;20041;-71
2023/12/31 07:21:02;;;;;;;3.30;2.30;;;7.30;78.70;;;;;;5025796;28;20045;-73
2023/12/31 07:23:28;;;;;;;3.07;2.30;;;7.20;78.70;;;;;;5022728;28;20053;-73
2023/12/31 07:25:53;;;;;;;4.27;2.30;;;7.30;78.50;;;;;;5024188;28;20049;-72
2023/12/31 07:28:19;;;;;;;4.10;2.60;;;7.30;78.60;;;;;;5025969;28;20455;-71
2023/12/31 07:30:46;;;;;;;4.37;2.73;;;7.40;78.50;;;;;;5023880;28;20210;-71
2023/12/31 07:33:12;;;;;;;6.50;2.70;;;7.40;78.40;;;;;;5023905;28;20120;-71
2023/12/31 07:35:38;;;;;;;4.10;2.80;;;7.30;78.50;;;;;;5021036;28;20065;-73
2023/12/31 07:38:05;;;;;;;3.93;2.53;;;7.40;78.50;;;;;;5023219;28;20077;-75
2023/12/31 07:40:31;;;;;;;5.83;3.17;;;7.40;78.60;;;;;;5024980;28;20080;-72
2023/12/31 07:42:57;;;;;;;3.70;2.63;;;7.40;78.60;;;;;;5018974;28;20038;-74
2023/12/31 07:45:23;;;;;;;4.30;2.70;;;7.40;78.60;;;;;;5022235;28;20057;-73
2023/12/31 07:47:49;;;;;;;4.70;2.67;;;7.40;78.50;;;;;;5022866;28;20100;-72
2023/12/31 07:50:15;;;;;;;3.80;2.87;;;7.40;78.50;;;;;;5022631;28;20048;-74
2023/12/31 07:52:41;;;;;;;4.80;2.57;;;7.40;78.40;;;;;;5023218;28;20048;-72
2023/12/31 07:55:10;;;;;;;5.07;2.97;;;7.50;78.30;;;;;;5020346;28;20103;-72
2023/12/31 07:57:36;;;;;;;5.17;2.97;;;7.50;78.30;;;;;;5024142;28;20072;-73
2023/12/31 08:00:06;;;;;;;4.23;3.10;;;7.50;78.20;;;;;;5023188;28;20165;-72
2023/12/31 08:02:32;;;;;;;3.57;2.67;;;7.50;78.30;;;;;;5023503;28;20449;-73
2023/12/31 08:04:58;;;;;;;4.93;2.80;;;7.50;78.30;;;;;;5021256;28;20508;-72
2023/12/31 08:07:23;;;;;;;4.03;2.67;;;7.50;78.40;;;;;;5023587;28;20068;-72
2023/12/31 08:09:49;;;;;;;4.97;2.97;;;7.50;78.60;;;;;;5019755;28;20516;-72
2023/12/31 08:12:14;;;;;;;3.20;2.90;;;7.50;78.50;;;;;;5023179;28;20053;-72
2023/12/31 08:14:40;;;;;;;3.90;2.97;;;7.50;78.60;;;;;;5018338;28;20092;-72
2023/12/31 08:17:07;;;;;;;6.33;2.80;;;7.50;78.60;;;;;;5020527;28;20504;-71
2023/12/31 08:19:32;;;;;;;5.00;2.63;;;7.50;78.40;;;;;;5021128;28;20045;-75
2023/12/31 08:21:58;;;;;;;3.57;2.53;;;7.50;78.40;;;;;;5022466;28;20370;-74
2023/12/31 08:24:24;;;;;;;4.70;2.90;;;7.60;78.30;;;;;;5015986;28;20064;-72
2023/12/31 08:26:50;;;;;;;4.10;2.90;;;7.50;78.30;;;;;;5022260;28;20057;-72
2023/12/31 08:29:16;;;;;;;4.83;2.77;;;7.60;78.20;;;;;;5020487;28;20496;-72
2023/12/31 08:31:47;;;;;;;3.50;2.60;;;7.60;78.10;;;;;;5014590;28;20052;-74
2023/12/31 08:34:13;;;;;;;6.47;3.40;;;7.60;77.90;;;;;;5011574;28;20053;-72
2023/12/31 08:36:38;;;;;;;7.17;4.90;;;7.60;77.90;;;;;;5038000;28;20312;-73
2023/12/31 08:39:04;;;;;;;6.83;4.03;;;7.70;78.00;;;;;;5022950;28;20464;-73
2023/12/31 08:41:30;;;;;;;4.83;3.03;;;7.60;77.90;;;;;;5021885;28;20053;-71
2023/12/31 08:43:55;;;;;;;4.27;3.13;;;7.70;77.90;;;;;;5022589;28;20513;-71
2023/12/31 08:46:21;;;;;;;4.47;2.80;;;7.70;77.80;;;;;;5020079;28;20053;-71
2023/12/31 08:48:47;;;;;;;6.40;2.90;;;7.70;77.60;;;;;;5013702;28;20108;-72
2023/12/31 08:51:13;;;;;;;4.77;2.97;;;7.70;77.60;;;;;;5004187;28;20049;-71
2023/12/31 08:53:39;;;;;;;4.30;2.97;;;7.70;77.70;;;;;;5015668;28;20601;-74
2023/12/31 08:56:05;;;;;;;3.97;3.23;;;7.70;77.60;;;;;;5013134;28;20493;-73
2023/12/31 08:58:31;;;;;;;5.50;3.23;;;7.80;77.60;;;;;;5018791;28;20057;-73
2023/12/31 09:00:57;;;;;;;3.53;2.73;;;7.80;77.50;;;;;;5015091;28;20053;-76
2023/12/31 09:03:24;;;;;;;4.40;2.80;;;7.80;77.40;;;;;;5016342;28;20505;-71
2023/12/31 09:05:49;;;;;;;5.30;3.03;;;7.90;77.30;;;;;;5010151;28;20049;-71
2023/12/31 09:08:15;;;;;;;5.63;2.90;;;7.90;77.30;;;;;;5019072;28;20052;-72
2023/12/31 09:10:42;;;;;;;3.67;2.87;;;8.00;77.20;;;;;;5015608;28;20090;-73
2023/12/31 09:13:07;;;;;;;5.83;2.73;;;8.00;77.10;;;;;;5018880;28;20046;-71
2023/12/31 09:15:34;;;;;;;4.60;2.90;;;8.00;77.20;;;;;;5019010;28;20435;-71
2023/12/31 09:18:00;;;;;;;5.10;3.20;;;8.00;77.10;;;;;;5014427;28;20086;-74
2023/12/31 09:20:25;;;;;;;4.30;2.97;;;8.00;77.20;;;;;;5019813;28;20049;-71
2023/12/31 09:22:53;;;;;;;3.80;2.90;;;8.00;77.30;;;;;;5024461;28;20537;-73
2023/12/31 09:25:19;;;;;;;5.67;2.83;;;8.00;77.50;;;;;;5025572;28;20042;-71
2023/12/31 09:27:45;;;;;;;5.47;2.70;;;7.90;77.60;;;;;;5026983;28;20475;-72
2023/12/31 09:30:11;;;;;;;4.67;2.60;;;7.90;77.80;;;;;;5023371;28;20132;-73
2023/12/31 09:32:37;;;;;;;5.30;3.13;;;7.90;77.80;;;;;;5027019;28;20095;-71
2023/12/31 09:35:03;;;;;;;5.30;2.87;;;7.80;77.90;;;;;;5026352;28;20076;-72
2023/12/31 09:37:29;;;;;;;5.10;2.80;;;7.80;77.80;;;;;;5027314;28;20054;-73
2023/12/31 09:39:55;;;;;;;5.80;2.80;;;7.80;77.90;;;;;;5025895;28;20432;-73
2023/12/31 09:42:47;;;;;;;4.20;2.80;;;7.80;77.70;;;;;;5023376;28;20045;-71
2023/12/31 09:45:14;;;;;;;6.00;3.77;;;7.90;77.60;;;;;;5014155;28;20524;-73
2023/12/31 09:47:41;;;;;;;6.07;3.33;;;7.90;77.70;;;;;;5024167;28;20064;-71
2023/12/31 09:50:08;;;;;;;4.57;3.20;;;7.90;77.90;;;;;;5020277;28;20053;-72
2023/12/31 09:52:34;;;;;;;6.33;2.93;;;8.00;77.70;;;;;;5019766;28;20429;-71
2023/12/31 09:55:01;;;;;;;5.93;3.53;;;8.00;77.50;;;;;;5021168;28;20069;-70
2023/12/31 09:57:29;;;;;;;5.57;3.90;;;8.00;77.70;;;;;;5025626;28;20057;-73
2023/12/31 09:59:55;;;;;;;5.80;3.77;;;8.00;77.60;;;;;;5020891;28;20417;-71
2023/12/31 10:02:22;;;;;;;7.90;4.93;;;8.10;77.60;;;;;;5019965;28;20529;-73
2023/12/31 10:04:51;;;;;;;4.23;3.50;;;8.10;77.60;;;;;;5025628;28;20065;-71
2023/12/31 10:07:16;;;;;;;7.70;4.63;;;8.10;77.70;;;;;;5025517;28;20053;-71
2023/12/31 10:09:42;;;;;;;3.20;2.67;;;8.20;77.60;;;;;;5020150;28;20060;-74
2023/12/31 10:12:08;;;;;;;6.97;4.40;;;8.20;77.50;;;;;;5019772;28;20068;-71
2023/12/31 10:14:34;;;;;;;5.33;4.00;;;8.20;77.50;;;;;;5026209;28;20409;-70
2023/12/31 10:17:00;;;;;;;4.73;3.53;;;8.20;77.50;;;;;;5018558;28;20080;-71
2023/12/31 10:19:25;;;;;;;5.53;4.10;;;8.20;77.50;;;;;;5012212;28;20046;-71
2023/12/31 10:21:52;;;;;;;4.90;3.27;;;8.30;77.70;;;;;;5023792;28;20061;-71
2023/12/31 10:24:30;;;;;;;3.47;3.07;;;8.30;77.80;;;;;;5023108;28;20077;-72
2023/12/31 10:26:56;;;;;;;4.10;3.00;;;8.40;77.20;;;;;;5023057;28;20396;-71
2023/12/31 10:29:21;;;;;;;4.73;3.23;;;8.40;77.30;;;;;;5020932;28;20045;-72
2023/12/31 10:31:48;;;;;;;5.40;2.77;;;8.50;77.30;;;;;;5023013;28;20583;-74
2023/12/31 10:34:15;;;;;;;4.80;3.00;;;8.50;77.20;;;;;;5021004;28;20060;-72
2023/12/31 10:36:43;;;;;;;4.37;2.97;;;8.60;76.90;;;;;;5039860;28;20515;-71
2023/12/31 10:39:08;;;;;;;3.67;3.17;;;8.60;77.00;;;;;;5021425;28;20081;-72
2023/12/31 10:41:37;;;;;;;4.70;3.40;;;8.60;77.20;;;;;;5015648;28;20125;-72
2023/12/31 10:44:11;;;;;;;6.47;3.13;;;8.60;77.20;;;;;;5013731;28;20047;-73
2023/12/31 10:46:41;;;;;;;5.33;3.10;;;8.60;76.70;;;;;;5024204;28;20045;-72
2023/12/31 10:49:10;;;;;;;4.30;3.20;;;8.60;76.90;;;;;;5024251;28;20540;-73
2023/12/31 10:51:40;;;;;;;4.03;3.03;;;8.60;76.70;;;;;;5020835;28;20049;-71
2023/12/31 10:54:08;;;;;;;4.43;3.20;;;8.60;76.80;;;;;;4997033;28;20053;-71
2023/12/31 10:56:34;;;;;;;4.93;3.33;;;8.60;76.70;;;;;;5024712;28;20583;-71
2023/12/31 10:59:02;;;;;;;4.00;3.10;;;8.60;76.70;;;;;;5018527;28;20060;-72
2023/12/31 11:01:28;;;;;;;5.33;3.70;;;8.60;76.60;;;;;;5024407;28;20064;-72
2023/12/31 11:03:56;;;;;;;4.77;3.43;;;8.60;76.60;;;;;;5019268;28;20093;-72
2023/12/31 11:06:23;;;;;;;6.50;3.37;;;8.60;76.70;;;;;;5012114;28;20045;-73
2023/12/31 11:08:49;;;;;;;6.83;3.90;;;8.60;76.90;;;;;;5024185;28;20494;-72
2023/12/31 11:11:18;;;;;;;6.07;4.17;;;8.60;77.50;;;;;;5024278;28;20045;-72
2023/12/31 11:13:49;;;;;;;5.50;3.70;;;8.60;77.90;;;;;;5025258;28;20049;-73
2023/12/31 11:16:34;;;;;;;5.22;4.10;;;8.50;78.30;;;;;;5020155;28;20064;-71
2023/12/31 11:19:52;;;;;;;5.20;3.90;;;8.40;78.70;;;;;;5022990;28;20407;-72
2023/12/31 11:22:36;;;;;;;6.57;3.90;;;8.40;79.10;;;;;;4960596;28;20059;-72
2023/12/31 11:25:03;;;;;;;5.33;4.27;;;8.30;79.30;;;;;;4962143;28;20046;-72
2023/12/31 11:27:33;;;;;;;8.00;5.17;;;8.20;79.70;;;;;;4998603;28;20057;-72
2023/12/31 11:30:00;;;;;;;7.47;5.33;;;8.20;80.20;;;;;;5022917;28;20045;-72
2023/12/31 11:32:27;;;;;;;8.07;5.57;;;8.20;80.60;;;;;;5011656;28;20053;-71
2023/12/31 11:34:53;;;;;;;7.27;5.67;;;8.10;81.10;;;;;;5023199;28;20083;-73
2023/12/31 11:37:20;;;;;;;7.07;4.53;;;8.00;81.30;;;;;;5023749;28;20127;-73
2023/12/31 11:39:47;;;;;;;8.10;4.90;;;8.00;81.60;;;;;;5024615;28;20569;-74
2023/12/31 11:42:13;;;;;;;4.67;2.60;;;8.00;81.90;;;;;;5021936;28;20131;-74
2023/12/31 11:44:46;;;;;;;4.10;1.87;;;7.80;81.40;;;;;;5023978;28;20136;-73
2023/12/31 11:47:25;;;;;;;3.00;1.40;;;7.50;81.40;;;;;;5023458;28;20068;-74
2023/12/31 11:50:17;;;;;;;2.43;1.50;;;7.30;81.50;;;;;;5023047;28;20497;-73
2023/12/31 11:52:43;;;;;;;4.23;2.07;;;7.20;82.20;;;;;;5021666;28;20053;-73
2023/12/31 11:55:13;;;;;;;4.40;1.80;;;7.10;82.50;;;;;;5022901;28;20046;-73
2023/12/31 11:57:44;;;;;;;5.63;3.43;;;7.10;82.80;;;;;;5021992;28;20056;-73
2023/12/31 12:00:11;;;;;;;8.00;3.85;;;7.00;82.90;;;;;;5023538;28;20054;-73
2023/12/31 12:02:38;;;;;;;9.27;4.40;;;7.00;83.20;;;;;;5022927;28;20053;-73
2023/12/31 12:05:04;;;;;;;6.63;3.67;;;7.00;83.10;;;;;;5022585;28;20057;-72
2023/12/31 12:07:37;;;;;;;12.90;5.87;;;7.10;83.00;;;;;;5042655;27;20435;-72
2023/12/31 12:10:04;;;;;;;8.23;3.97;;;7.10;82.80;;;;;;5032679;28;20168;-71
2023/12/31 12:12:30;;;;;;;20.03;9.67;;;7.10;82.40;;;;;;5026187;28;20050;-72
2023/12/31 12:14:56;;;;;;;26.87;12.17;;;7.20;82.10;;;;;;5030126;28;20438;-73
2023/12/31 12:17:27;;;;;;;14.97;7.17;;;7.20;82.00;;;;;;5021152;28;20050;-71
2023/12/31 12:19:53;;;;;;;;;;;7.20;81.90;;;;;;5034236;28;20048;-71
2023/12/31 12:22:20;;;;;;;13.90;5.57;;;7.20;81.90;;;;;;5024212;28;20388;-72
2023/12/31 12:24:46;;;;;;;15.47;8.63;;;7.20;82.20;;;;;;5035548;28;20111;-71
2023/12/31 12:27:12;;;;;;;9.37;4.73;;;7.40;82.20;;;;;;5041781;28;20049;-72
2023/12/31 12:29:37;;;;;;;11.80;5.33;;;7.60;81.90;;;;;;5041315;28;20053;-72
2023/12/31 12:32:06;;;;;;;34.43;16.13;;;7.80;80.90;;;;;;5045509;28;20446;-75
2023/12/31 12:34:32;;;;;;;15.43;7.30;;;7.80;80.70;;;;;;5016401;28;20069;-72
2023/12/31 12:36:59;;;;;;;16.60;7.53;;;7.80;80.60;;;;;;5046046;28;20132;-72
2023/12/31 12:39:25;;;;;;;5.83;2.63;;;7.80;80.40;;;;;;5059928;28;20079;-73
2023/12/31 12:41:52;;;;;;;5.00;2.43;;;7.80;80.60;;;;;;5036703;28;20049;-71
2023/12/31 12:44:19;;;;;;;3.67;1.97;;;7.80;81.00;;;;;;5045752;28;20348;-72
2023/12/31 12:46:46;;;;;;;3.93;2.00;;;7.90;80.90;;;;;;5048814;28;20092;-72
2023/12/31 12:49:13;;;;;;;12.97;6.97;;;8.00;80.60;;;;;;5053179;28;20049;-72
2023/12/31 12:51:40;;;;;;;15.57;7.47;;;8.00;80.80;;;;;;5048967;28;20136;-72
2023/12/31 12:54:07;;;;;;;10.40;5.00;;;8.10;80.70;;;;;;5054985;28;20045;-72